map of LUO home
LUO - Airport
Location
City:  Luena, Moxico, Angola
ICAO:FNUE
IATA:LUO

Details
Type:Airport (Aerodrome, Airfield)
Latitude:1146'05"S (-11.768085)
Longitude:1953'52"E (19.897672)
Datum:WGS 1984
Elevation:4360 ft (1329 m)
Variation:2.81W (WMM2015 magnetic declination)
0.14 annual change
Runways:1
Longest:7875 × 130 ft (2400 × 39.5 m), paved

Time
Time Zone:UTC+1
Local Time:

Weather
METAR:FNUE 111500Z 31010KT 9999 TS BKN016 FEW030CB 22/19 Q1019
TAF:FNUE 111400Z 1114/1124 27008KT 9999 BKN030 PROB30
TEMPO 1114/1117 5000 -TSRA SCT014 BKN018 FEW035CB
BECMG 1120/1122 34005KT 7000 DZ FEW018 BKN020

Related Locations
Nearby:
Farthest:PLPA: 12006 mi / 19321 km
Palmyra Island Atoll [Palmyra Airport (Cooper)], UM

Find:

   beyond  
but within

Other Information
Maps:
NOTAMs:
Links:
Sources:

  
  • flag of Angola
  

Sectional Chart

Flight Planning
at skyvector.com

Satellite Image

Google Maps Satellite view

 

Copyright © 2004-2018 Karl L. Swartz. All rights reserved.
The Great Circle Mapper name and logo are trademarks of the Great Circle Mapper.
All other trademarks mentioned herein belong to their respective owners.
Please see credits for attibutions and further copyright information.

  Follow gcmap on Facebook Follow gcmap on Twitter Follow gcmap on Google+ GCmap on LinkedIn

hCard Microformat

Geo Microformat